Intensas rachas de vientos causan severos daños en el Aeropuerto del Norte

Tiempo de lectura: 2 minutos

Fuertes rachas de viento azotaron al Aeropuerto Internacional del Norte (ADN), México, causando daños en algunas de las aeronaves e instalaciones de la terminal alrededor de las 21:30 UTC de lunes 7 de agosto.

Según las imágenes enviadas a la redacción de Transponder 1200 por el grupo ADNse muestra como algunas estructuras como el hangar Pilatus fueron severamente dañadas, así como un Black Hawk UH-60 de la Fuerza Aérea Mexicana (FAM) perteneciente a la Base Aérea No. 14 que se encuentra dentro de las instalaciones de la terminal aeroportuaria.

La comandancia del aeropuerto no fue capaz de dar declaraciones a Transponder 1200, pero se sabe que los integrantes del Cuerpo de Rescate y Extinción de Incendios (CREI) se encuentran en labores. El Aeropuerto Internacional del Norte se encuentra actualmente cerrado a sus operaciones.

Reportes Metar

MMAN 072214Z 11008KT 10SM SCT030CB SCT070 BKN200 23/20 A2987 RMK 8/363 RAE10 OCNL DROPS 
MMAN 072145Z 34003KT 4SM RA BKN020CB BKN200 22/18 A2994 RMK 62645 8/302 + RAE40RAB ISOL AC 
MMAN 072132Z 14014G27KT 1 1 / 2SM TS + RA BKN020 BKN200 20/17 A2991 RMK 8/302 OCNL GR 
MMAN 072109Z 20019KT 1SM + RA BKN030CB BKN200 23/22 A2994 RMK 8/302 
MMAN 072103Z 23021KT 3SM + RA BKN030CB BKN200 32/20 A2991 RMK 8/302 + RAB58 
MMAN 072040Z 36013KT 6SM SCT035CB SCT070 SCT200 38/20 A2985 RMK SLP /// 5 //// 9 // 8/372 HZY ​​PCPN 3 QUAD

Fotos: Créditos al autor.

  • author's avatar

    Por: Roberto Mtz Armendáriz

    Periodista independiente con más de 10 años de experiencia en los medios de comunicación. Ha participado en varios proyectos de casas radiodifusoras como titular de noticieros en FM (Grupo Radiorama) y ha sido Jefe de Información de varios periódicos mexicanos. También, posee Licencia de Oficial de Operaciones de Aeronaves.

    Ciudad de México.

  • author's avatar

Deja tu comentario.